MAD Daily WX Brief

WEATHERMAN

Looks like some miserable weather over in the Seattle area initially today, then largely clearing up. Fair skies throughout the rest of the state. No NOTAMS for KEAT today (check regularly though!)

7 Likes

Still looking like some fine weather across Washington today!

3 Likes

As we used to say in college…

Q “Is it nice out?”
A “Yes. I think you should leave it out.” :slightly_smiling_face:

1 Like

Yeah, just blocked in at KBVS and the trip up from Tacoma was clear, albeit really hazy for a morning in the PNW.

@BeachAV8R TAF raw report: KEAT 271720Z 2718/2818 28006KT P6SM SKC FM271900 13005KT P6SM SKC FM280300 VRB04KT P6SM FEW150.

Don’t forget about WXBOT! Put (METAR XXXX) or (TAF XXXX) where XXXX = ICAO ID and use square brackets instead of parentheses!

@BeachAV8R TAF raw report: KSEA 272100Z 2721/2824 36012KT P6SM SCT250 FM280400 04005KT P6SM SKC FM281800 36012KT P6SM SKC.

Cool. Giving WXBOT a spin.

@chipwich METAR raw report: KBVS 272335Z 30009KT 22/11 A3014 RMK A01.

[TAF KBVS]

@chipwich METAR raw report: KBVS 272335Z 30009KT 22/11 A3014 RMK A01. [TAF KBVS]

@chipwich METAR raw report: KBVS 272335Z 30009KT 22/11 A3014 RMK A01.

Sorry about the duplicates. When I initially tried WXBOT, I received a 500 error.

1 Like

@Hangar200 METAR raw report: KPHF 281400Z 17016G19KT 10SM SCT012 OVC018 26/22 A3012 RMK AO2 T02610217.

How cool is this! Thank you WXBOT! I’m going to do this every 5 minuets for the rest of the day! :crazy_face:

1 Like

Unusual streak of great weather throughout the PNW…!

1 Like

METAR [KPHF]

WXBOT seems to be social distancing from me today…

…anyway I was trying to post something like this:
I know that really flying in bad WX is, shall we say, not greatly yearned for by RL pilots (and RL passengers like myself).

However, for an only-sim pilot, like myself, I enjoy the challenge.

So while things are peachy in the PNW, here in Hampton (and I suspect the home bases of the RL Mudspike pilots in the region) we are looking at a bit of a different situation.

I’m doing DCS today but if I wasn’t I would be checking this out. Just imagine, flying a cargo of COVID-19 vacine to an orphanage somewhere in this mess!!

KPHF 291907Z 14008G18KT 8SM VCTS -RA SCT023 BKN036 OVC060 24/20 A3002 RMK AO2 LTG DSNT ALQDS TSE01 P0000 T02440200

I especially like gusts to 18 Kts and TS in the area.

1 Like

yes2

Well the F-22s at Langley are flying in this… :slightly_smiling_face:

A broad area of moisture moving up from the southwest…but the forecast is still very good for WA with just some showery conditions but good ceilings and visibility forecast…

That depends on what you call “bad”. low stratiform clouds; fog, (with good alternates atound); heavy rain—all are great fun to fly in. Thunderstorms, icing, turbulence, windshear—total work.

2 Likes

Yeah…I can’t tell you how many times I’ve told an FO - “man…I can’t wait to get into these clouds so I can get this damn sun out of my face…”

2 Likes

Some real ugliness is coming in…! Check out that VRB25G38 and 2SM at KEAT and KGEG - that should set up some awesome turbulence!

2 Likes
© 2020 Mudspike.com | Articles Website | Forums Rules & FAQ